Terminal Aerodrome Forecast
Issued by NWS Charleston, WV

Current Version | Previous Version | Graphics & Text | Print | Product List | Glossary On
Versions: 1 2 3 4 5 6 7 8 9 10 11 12 13 14 15 16 17 18 19 20 21 22 23 24 25 26 27 28 29 30
160
FTUS41 KRLX 191730
TAFPKB
TAF
KPKB 191730Z 1918/2018 28010G18KT P6SM OVC035
     FM200300 27009KT P6SM BKN040
     FM200500 27008KT P6SM SCT035
     FM200700 26007KT P6SM SKC
     FM201400 22006KT P6SM SCT250=

USA.gov is the U.S. government's official web portal to all federal, state and local government web resources and services.